Terminal Aerodrome Forecast
Issued by NWS

Home | Current Version | Previous Version | Text Only | Print | Product List | Glossary On
Versions: 1 2 3 4 5 6 7 8 9 10 11 12 13 14 15 16
000
FTUS46 KPDT 241358 AAA
TAFDLS
TAF AMD
KDLS 241358Z 2414/2512 32012G22KT P6SM SCT250
     FM241800 32018G26KT P6SM FEW150 SCT250
     FM242300 32018G26KT P6SM SCT150 BKN250
     FM250600 31013G21KT P6SM FEW200 SCT250
     FM251000 31011KT P6SM SCT200 BKN250=

USA.gov is the U.S. government's official web portal to all federal, state and local government web resources and services.